sensor_id;sensor_type;location;lat;lon;timestamp;pressure;altitude;pressure_sealevel;temperature;humidity
30935;BME280;51033;42.648;23.292;2023-01-29T00:00:50;93923.59;;;-0.74;66.31
30935;BME280;51033;42.648;23.292;2023-01-29T00:03:15;93899.28;;;-0.75;65.85
30935;BME280;51033;42.648;23.292;2023-01-29T00:05:41;93924.97;;;-0.88;66.86
30935;BME280;51033;42.648;23.292;2023-01-29T00:08:06;93900.59;;;-0.94;66.69
30935;BME280;51033;42.648;23.292;2023-01-29T00:10:32;93894.91;;;-1.08;67.11
30935;BME280;51033;42.648;23.292;2023-01-29T00:12:57;93911.69;;;-1.04;67.67
30935;BME280;51033;42.648;23.292;2023-01-29T00:15:22;93922.81;;;-0.75;67.62
30935;BME280;51033;42.648;23.292;2023-01-29T00:17:48;93910.81;;;-0.92;67.48
30935;BME280;51033;42.648;23.292;2023-01-29T00:20:13;93914.91;;;-0.97;66.98
30935;BME280;51033;42.648;23.292;2023-01-29T00:22:39;93902.41;;;-0.95;67.54
30935;BME280;51033;42.648;23.292;2023-01-29T00:25:05;93925.75;;;-0.88;67.34
30935;BME280;51033;42.648;23.292;2023-01-29T00:27:30;93934.47;;;-0.99;68.25
30935;BME280;51033;42.648;23.292;2023-01-29T00:29:56;93937.06;;;-1.16;68.87
30935;BME280;51033;42.648;23.292;2023-01-29T00:32:36;93936.69;;;-1.08;69.11
30935;BME280;51033;42.648;23.292;2023-01-29T00:35:01;93943.88;;;-1.15;68.98
30935;BME280;51033;42.648;23.292;2023-01-29T00:37:27;93930.47;;;-1.35;69.18
30935;BME280;51033;42.648;23.292;2023-01-29T00:39:52;93938.09;;;-1.33;69.47
30935;BME280;51033;42.648;23.292;2023-01-29T00:42:18;93904.41;;;-1.52;69.40
30935;BME280;51033;42.648;23.292;2023-01-29T00:45:01;93922.59;;;-1.23;69.21
30935;BME280;51033;42.648;23.292;2023-01-29T00:47:27;93941.09;;;-1.25;69.72
30935;BME280;51033;42.648;23.292;2023-01-29T00:49:57;93935.25;;;-1.32;70.05
30935;BME280;51033;42.648;23.292;2023-01-29T00:52:23;93927.72;;;-1.28;69.63
30935;BME280;51033;42.648;23.292;2023-01-29T00:54:49;93940.63;;;-1.22;69.90
30935;BME280;51033;42.648;23.292;2023-01-29T00:57:14;93896.22;;;-1.72;70.88
30935;BME280;51033;42.648;23.292;2023-01-29T00:59:39;93936.09;;;-1.43;71.26
30935;BME280;51033;42.648;23.292;2023-01-29T01:02:05;93925.59;;;-1.48;71.39
30935;BME280;51033;42.648;23.292;2023-01-29T01:04:48;93921.59;;;-1.51;71.33
30935;BME280;51033;42.648;23.292;2023-01-29T01:07:14;93936.97;;;-1.38;71.39
30935;BME280;51033;42.648;23.292;2023-01-29T01:09:39;93924.00;;;-1.49;70.55
30935;BME280;51033;42.648;23.292;2023-01-29T01:12:23;93928.28;;;-1.43;70.98
30935;BME280;51033;42.648;23.292;2023-01-29T01:14:49;93915.44;;;-1.61;71.05
30935;BME280;51033;42.648;23.292;2023-01-29T01:17:14;93910.88;;;-1.54;70.82
30935;BME280;51033;42.648;23.292;2023-01-29T01:19:40;93920.06;;;-1.35;70.85
30935;BME280;51033;42.648;23.292;2023-01-29T01:22:05;93902.81;;;-1.53;70.54
30935;BME280;51033;42.648;23.292;2023-01-29T01:24:31;93888.91;;;-1.58;70.71
30935;BME280;51033;42.648;23.292;2023-01-29T01:26:56;93941.75;;;-1.18;70.85
30935;BME280;51033;42.648;23.292;2023-01-29T01:29:22;93913.25;;;-1.36;70.11
30935;BME280;51033;42.648;23.292;2023-01-29T01:31:47;93905.84;;;-1.27;70.46
30935;BME280;51033;42.648;23.292;2023-01-29T01:34:12;93902.88;;;-1.64;70.94
30935;BME280;51033;42.648;23.292;2023-01-29T01:36:38;93936.41;;;-1.56;71.94
30935;BME280;51033;42.648;23.292;2023-01-29T01:39:03;93936.41;;;-1.56;72.15
30935;BME280;51033;42.648;23.292;2023-01-29T01:41:29;93928.59;;;-1.85;72.77
30935;BME280;51033;42.648;23.292;2023-01-29T01:44:00;93919.19;;;-1.86;73.20
30935;BME280;51033;42.648;23.292;2023-01-29T01:46:36;93892.34;;;-2.14;73.36
30935;BME280;51033;42.648;23.292;2023-01-29T01:49:06;93939.72;;;-1.89;73.45
30935;BME280;51033;42.648;23.292;2023-01-29T01:51:37;93921.44;;;-2.17;74.10
30935;BME280;51033;42.648;23.292;2023-01-29T01:54:13;93926.06;;;-2.08;74.13
30935;BME280;51033;42.648;23.292;2023-01-29T01:56:45;93941.56;;;-2.01;74.78
30935;BME280;51033;42.648;23.292;2023-01-29T01:59:16;93931.00;;;-1.95;74.39
30935;BME280;51033;42.648;23.292;2023-01-29T02:01:47;93928.47;;;-1.90;73.70
30935;BME280;51033;42.648;23.292;2023-01-29T02:04:19;93955.47;;;-1.56;73.47
30935;BME280;51033;42.648;23.292;2023-01-29T02:07:06;93947.38;;;-1.54;72.84
30935;BME280;51033;42.648;23.292;2023-01-29T02:10:05;93925.28;;;-1.80;72.89
30935;BME280;51033;42.648;23.292;2023-01-29T02:12:32;93940.41;;;-1.65;72.71
30935;BME280;51033;42.648;23.292;2023-01-29T02:14:58;93916.69;;;-1.64;72.50
30935;BME280;51033;42.648;23.292;2023-01-29T02:17:24;93939.66;;;-1.49;72.17
30935;BME280;51033;42.648;23.292;2023-01-29T02:33:32;93968.69;;;-0.96;71.40
30935;BME280;51033;42.648;23.292;2023-01-29T02:38:54;93952.09;;;-0.89;70.27
30935;BME280;51033;42.648;23.292;2023-01-29T02:41:28;93974.31;;;-0.70;69.97
30935;BME280;51033;42.648;23.292;2023-01-29T02:46:38;93981.13;;;-0.69;69.97
30935;BME280;51033;42.648;23.292;2023-01-29T02:52:06;93986.41;;;-0.81;70.36
30935;BME280;51033;42.648;23.292;2023-01-29T02:57:16;93982.06;;;-0.59;69.50
30935;BME280;51033;42.648;23.292;2023-01-29T03:00:06;93982.38;;;-0.55;69.84
30935;BME280;51033;42.648;23.292;2023-01-29T03:02:45;93978.88;;;-0.44;68.82
30935;BME280;51033;42.648;23.292;2023-01-29T03:05:22;93979.56;;;-0.32;68.08
30935;BME280;51033;42.648;23.292;2023-01-29T03:07:55;93969.53;;;-0.40;67.75
30935;BME280;51033;42.648;23.292;2023-01-29T03:10:55;93979.97;;;-0.40;67.47
30935;BME280;51033;42.648;23.292;2023-01-29T03:16:02;93970.00;;;-0.43;67.36
30935;BME280;51033;42.648;23.292;2023-01-29T03:18:35;93953.56;;;-0.60;67.12
30935;BME280;51033;42.648;23.292;2023-01-29T03:21:09;93967.88;;;-0.46;66.67
30935;BME280;51033;42.648;23.292;2023-01-29T03:23:55;93991.53;;;-0.53;67.02
30935;BME280;51033;42.648;23.292;2023-01-29T03:26:42;93990.94;;;-0.76;67.33
30935;BME280;51033;42.648;23.292;2023-01-29T03:29:30;93965.16;;;-0.89;67.35
30935;BME280;51033;42.648;23.292;2023-01-29T03:32:17;93953.06;;;-1.12;67.72
30935;BME280;51033;42.648;23.292;2023-01-29T03:34:47;93987.13;;;-1.19;68.13
30935;BME280;51033;42.648;23.292;2023-01-29T03:37:20;93990.13;;;-1.27;68.72
30935;BME280;51033;42.648;23.292;2023-01-29T03:39:48;94001.75;;;-1.63;69.73
30935;BME280;51033;42.648;23.292;2023-01-29T03:42:54;93992.09;;;-1.62;70.55
30935;BME280;51033;42.648;23.292;2023-01-29T03:46:05;93991.91;;;-1.44;69.85
30935;BME280;51033;42.648;23.292;2023-01-29T03:48:44;93988.38;;;-1.38;69.47
30935;BME280;51033;42.648;23.292;2023-01-29T04:01:41;93986.44;;;-0.98;68.75
30935;BME280;51033;42.648;23.292;2023-01-29T04:06:46;93931.66;;;-1.26;68.00
30935;BME280;51033;42.648;23.292;2023-01-29T04:09:17;93992.28;;;-1.07;68.53
30935;BME280;51033;42.648;23.292;2023-01-29T04:11:51;93983.25;;;-1.00;68.44
30935;BME280;51033;42.648;23.292;2023-01-29T04:14:19;93971.88;;;-1.10;67.21
30935;BME280;51033;42.648;23.292;2023-01-29T04:16:48;93990.94;;;-0.93;67.35
30935;BME280;51033;42.648;23.292;2023-01-29T04:19:15;93956.59;;;-1.18;67.05
30935;BME280;51033;42.648;23.292;2023-01-29T04:21:41;93943.78;;;-1.20;67.00
30935;BME280;51033;42.648;23.292;2023-01-29T04:24:08;93991.03;;;-0.88;67.10
30935;BME280;51033;42.648;23.292;2023-01-29T04:27:11;93971.22;;;-1.01;67.02
30935;BME280;51033;42.648;23.292;2023-01-29T04:32:43;93976.31;;;-0.94;67.05
30935;BME280;51033;42.648;23.292;2023-01-29T04:38:05;93993.38;;;-0.86;67.03
30935;BME280;51033;42.648;23.292;2023-01-29T04:46:20;94012.53;;;-0.64;66.44
30935;BME280;51033;42.648;23.292;2023-01-29T04:54:46;94011.66;;;-1.03;67.77
30935;BME280;51033;42.648;23.292;2023-01-29T04:57:21;93998.38;;;-0.85;66.90
30935;BME280;51033;42.648;23.292;2023-01-29T05:00:34;94015.16;;;-0.64;66.21
30935;BME280;51033;42.648;23.292;2023-01-29T05:03:03;94010.22;;;-0.77;65.29
30935;BME280;51033;42.648;23.292;2023-01-29T05:05:30;94011.75;;;-0.81;66.24
30935;BME280;51033;42.648;23.292;2023-01-29T05:07:56;93977.47;;;-1.02;66.19
30935;BME280;51033;42.648;23.292;2023-01-29T05:10:23;94013.41;;;-0.92;66.46
30935;BME280;51033;42.648;23.292;2023-01-29T05:12:59;94000.88;;;-1.07;66.56
30935;BME280;51033;42.648;23.292;2023-01-29T05:15:30;94021.25;;;-0.75;66.55
30935;BME280;51033;42.648;23.292;2023-01-29T05:17:58;94021.81;;;-0.73;65.77
30935;BME280;51033;42.648;23.292;2023-01-29T05:20:29;94014.06;;;-0.68;66.23
30935;BME280;51033;42.648;23.292;2023-01-29T05:22:56;94019.91;;;-0.61;65.60
30935;BME280;51033;42.648;23.292;2023-01-29T05:25:32;94003.81;;;-0.53;64.89
30935;BME280;51033;42.648;23.292;2023-01-29T05:27:58;94025.91;;;-0.44;65.07
30935;BME280;51033;42.648;23.292;2023-01-29T05:30:38;94024.84;;;-0.43;64.63
30935;BME280;51033;42.648;23.292;2023-01-29T05:33:11;94027.81;;;-0.39;64.89
30935;BME280;51033;42.648;23.292;2023-01-29T05:35:38;94011.50;;;-0.46;63.96
30935;BME280;51033;42.648;23.292;2023-01-29T05:38:03;94022.09;;;-0.53;64.10
30935;BME280;51033;42.648;23.292;2023-01-29T05:40:28;94026.47;;;-0.59;65.13
30935;BME280;51033;42.648;23.292;2023-01-29T05:42:54;94033.03;;;-0.39;64.66
30935;BME280;51033;42.648;23.292;2023-01-29T05:45:19;94018.31;;;-0.45;64.32
30935;BME280;51033;42.648;23.292;2023-01-29T05:47:45;94032.91;;;-0.28;64.34
30935;BME280;51033;42.648;23.292;2023-01-29T05:50:12;94035.22;;;-0.15;63.45
30935;BME280;51033;42.648;23.292;2023-01-29T05:52:37;94033.78;;;-0.22;64.14
30935;BME280;51033;42.648;23.292;2023-01-29T05:55:04;94030.44;;;-0.18;64.45
30935;BME280;51033;42.648;23.292;2023-01-29T05:57:29;94018.59;;;-0.42;64.51
30935;BME280;51033;42.648;23.292;2023-01-29T05:59:55;94045.03;;;-0.22;64.62
30935;BME280;51033;42.648;23.292;2023-01-29T06:02:20;94041.69;;;-0.17;64.26
30935;BME280;51033;42.648;23.292;2023-01-29T06:04:45;94036.91;;;-0.42;64.98
30935;BME280;51033;42.648;23.292;2023-01-29T06:07:11;94021.47;;;-0.43;65.22
30935;BME280;51033;42.648;23.292;2023-01-29T06:09:36;94016.25;;;-0.60;65.23
30935;BME280;51033;42.648;23.292;2023-01-29T06:12:02;94053.59;;;-0.43;64.98
30935;BME280;51033;42.648;23.292;2023-01-29T06:14:30;94051.06;;;-0.38;65.14
30935;BME280;51033;42.648;23.292;2023-01-29T06:16:56;94042.88;;;-0.63;66.30
30935;BME280;51033;42.648;23.292;2023-01-29T06:19:21;94067.56;;;-0.54;66.52
30935;BME280;51033;42.648;23.292;2023-01-29T06:21:47;94067.56;;;-0.54;67.03
30935;BME280;51033;42.648;23.292;2023-01-29T06:24:12;94082.59;;;-0.61;67.28
30935;BME280;51033;42.648;23.292;2023-01-29T06:26:37;94073.47;;;-0.75;68.44
30935;BME280;51033;42.648;23.292;2023-01-29T06:29:03;94084.66;;;-0.63;68.22
30935;BME280;51033;42.648;23.292;2023-01-29T06:31:28;94086.31;;;-0.57;68.00
30935;BME280;51033;42.648;23.292;2023-01-29T06:33:53;94089.34;;;-0.48;67.46
30935;BME280;51033;42.648;23.292;2023-01-29T06:36:19;94048.22;;;-0.86;68.18
30935;BME280;51033;42.648;23.292;2023-01-29T06:38:44;94092.50;;;-0.46;68.41
30935;BME280;51033;42.648;23.292;2023-01-29T06:41:13;94080.53;;;-0.59;68.50
30935;BME280;51033;42.648;23.292;2023-01-29T06:43:39;94069.19;;;-0.48;68.07
30935;BME280;51033;42.648;23.292;2023-01-29T06:46:06;94091.22;;;-0.27;67.48
30935;BME280;51033;42.648;23.292;2023-01-29T06:48:32;94087.09;;;-0.23;67.63
30935;BME280;51033;42.648;23.292;2023-01-29T06:51:05;94089.22;;;-0.03;66.74
30935;BME280;51033;42.648;23.292;2023-01-29T06:53:32;94097.69;;;0.04;65.70
30935;BME280;51033;42.648;23.292;2023-01-29T06:55:58;94102.47;;;-0.10;65.36
30935;BME280;51033;42.648;23.292;2023-01-29T06:58:23;94097.97;;;-0.15;65.53
30935;BME280;51033;42.648;23.292;2023-01-29T07:00:49;94088.13;;;-0.41;65.71
30935;BME280;51033;42.648;23.292;2023-01-29T07:03:14;94106.03;;;-0.33;66.24
30935;BME280;51033;42.648;23.292;2023-01-29T07:05:40;94080.06;;;-0.56;66.53
30935;BME280;51033;42.648;23.292;2023-01-29T07:08:05;94108.25;;;-0.58;67.27
30935;BME280;51033;42.648;23.292;2023-01-29T07:10:31;94118.41;;;-0.45;67.64
30935;BME280;51033;42.648;23.292;2023-01-29T07:12:58;94098.50;;;-0.63;68.21
30935;BME280;51033;42.648;23.292;2023-01-29T07:15:23;94094.06;;;-0.62;67.96
30935;BME280;51033;42.648;23.292;2023-01-29T07:17:59;94095.25;;;-0.53;67.53
30935;BME280;51033;42.648;23.292;2023-01-29T07:20:26;94127.66;;;-0.37;67.27
30935;BME280;51033;42.648;23.292;2023-01-29T07:22:52;94132.66;;;-0.36;67.68
30935;BME280;51033;42.648;23.292;2023-01-29T07:25:18;94098.44;;;-0.51;67.68
30935;BME280;51033;42.648;23.292;2023-01-29T07:27:43;94111.81;;;-0.31;67.74
30935;BME280;51033;42.648;23.292;2023-01-29T07:30:09;94106.84;;;-0.49;66.50
30935;BME280;51033;42.648;23.292;2023-01-29T07:32:35;94124.56;;;-0.34;67.10
30935;BME280;51033;42.648;23.292;2023-01-29T07:35:00;94128.53;;;-0.32;67.09
30935;BME280;51033;42.648;23.292;2023-01-29T07:37:25;94097.94;;;-0.48;66.70
30935;BME280;51033;42.648;23.292;2023-01-29T07:39:51;94099.47;;;-0.69;67.78
30935;BME280;51033;42.648;23.292;2023-01-29T07:42:16;94113.47;;;-0.58;68.41
30935;BME280;51033;42.648;23.292;2023-01-29T07:44:41;94145.00;;;-0.31;67.82
30935;BME280;51033;42.648;23.292;2023-01-29T07:47:07;94111.97;;;-0.54;68.23
30935;BME280;51033;42.648;23.292;2023-01-29T07:49:32;94121.38;;;-0.53;68.79
30935;BME280;51033;42.648;23.292;2023-01-29T07:51:57;94116.56;;;-0.61;68.95
30935;BME280;51033;42.648;23.292;2023-01-29T07:54:23;94142.63;;;-0.33;68.25
30935;BME280;51033;42.648;23.292;2023-01-29T07:56:48;94149.09;;;-0.52;68.86
30935;BME280;51033;42.648;23.292;2023-01-29T07:59:13;94142.75;;;-0.56;69.02
30935;BME280;51033;42.648;23.292;2023-01-29T08:01:39;94149.56;;;-0.55;68.39
30935;BME280;51033;42.648;23.292;2023-01-29T08:04:04;94145.28;;;-0.61;68.74
30935;BME280;51033;42.648;23.292;2023-01-29T08:06:29;94152.31;;;-0.78;69.73
30935;BME280;51033;42.648;23.292;2023-01-29T08:08:55;94136.22;;;-0.87;69.59
30935;BME280;51033;42.648;23.292;2023-01-29T08:11:21;94132.75;;;-0.76;70.01
30935;BME280;51033;42.648;23.292;2023-01-29T08:13:47;94137.44;;;-0.78;70.17
30935;BME280;51033;42.648;23.292;2023-01-29T08:16:12;94153.69;;;-0.59;70.08
30935;BME280;51033;42.648;23.292;2023-01-29T08:18:38;94130.19;;;-0.59;69.14
30935;BME280;51033;42.648;23.292;2023-01-29T08:21:06;94136.66;;;-0.62;69.13
30935;BME280;51033;42.648;23.292;2023-01-29T08:23:31;94163.03;;;-0.46;69.63
30935;BME280;51033;42.648;23.292;2023-01-29T08:25:57;94136.25;;;-0.70;69.84
30935;BME280;51033;42.648;23.292;2023-01-29T08:28:22;94136.75;;;-0.57;69.71
30935;BME280;51033;42.648;23.292;2023-01-29T08:30:48;94168.34;;;-0.41;70.28
30935;BME280;51033;42.648;23.292;2023-01-29T08:33:13;94171.84;;;-0.36;69.61
30935;BME280;51033;42.648;23.292;2023-01-29T08:35:38;94146.31;;;-0.62;69.44
30935;BME280;51033;42.648;23.292;2023-01-29T08:38:05;94172.78;;;-0.42;69.54
30935;BME280;51033;42.648;23.292;2023-01-29T08:40:32;94177.25;;;-0.26;69.02
30935;BME280;51033;42.648;23.292;2023-01-29T08:42:59;94169.25;;;-0.19;67.77
30935;BME280;51033;42.648;23.292;2023-01-29T08:45:25;94162.59;;;-0.27;66.54
30935;BME280;51033;42.648;23.292;2023-01-29T08:47:50;94162.81;;;-0.45;67.45
30935;BME280;51033;42.648;23.292;2023-01-29T08:50:16;94186.03;;;-0.15;66.51
30935;BME280;51033;42.648;23.292;2023-01-29T08:52:42;94162.41;;;-0.37;66.52
30935;BME280;51033;42.648;23.292;2023-01-29T08:55:09;94189.69;;;-0.16;66.91
30935;BME280;51033;42.648;23.292;2023-01-29T08:57:35;94187.13;;;-0.28;67.43
30935;BME280;51033;42.648;23.292;2023-01-29T09:00:01;94202.69;;;-0.21;67.07
30935;BME280;51033;42.648;23.292;2023-01-29T09:02:26;94172.56;;;-0.40;66.49
30935;BME280;51033;42.648;23.292;2023-01-29T09:04:51;94192.09;;;-0.43;67.23
30935;BME280;51033;42.648;23.292;2023-01-29T09:07:17;94199.00;;;-0.37;67.65
30935;BME280;51033;42.648;23.292;2023-01-29T09:09:42;94203.38;;;-0.26;67.59
30935;BME280;51033;42.648;23.292;2023-01-29T09:12:07;94178.31;;;-0.38;67.27
30935;BME280;51033;42.648;23.292;2023-01-29T09:14:33;94187.47;;;-0.24;66.77
30935;BME280;51033;42.648;23.292;2023-01-29T09:16:58;94178.91;;;-0.20;65.67
30935;BME280;51033;42.648;23.292;2023-01-29T09:19:23;94180.97;;;-0.22;65.62
30935;BME280;51033;42.648;23.292;2023-01-29T09:21:49;94199.50;;;-0.07;65.86
30935;BME280;51033;42.648;23.292;2023-01-29T09:24:15;94193.63;;;-0.14;65.80
30935;BME280;51033;42.648;23.292;2023-01-29T09:26:40;94195.22;;;-0.13;65.55
30935;BME280;51033;42.648;23.292;2023-01-29T09:29:05;94196.03;;;-0.29;66.20
30935;BME280;51033;42.648;23.292;2023-01-29T09:31:31;94187.78;;;-0.21;66.40
30935;BME280;51033;42.648;23.292;2023-01-29T09:33:57;94035.13;;;-1.20;66.44
30935;BME280;51033;42.648;23.292;2023-01-29T09:36:22;94190.44;;;-0.32;66.69
30935;BME280;51033;42.648;23.292;2023-01-29T09:38:48;94160.34;;;-0.52;66.36
30935;BME280;51033;42.648;23.292;2023-01-29T09:44:12;94172.69;;;-0.47;67.13
30935;BME280;51033;42.648;23.292;2023-01-29T09:46:42;94160.28;;;-0.40;67.32
30935;BME280;51033;42.648;23.292;2023-01-29T09:49:23;94140.41;;;-0.41;68.39
30935;BME280;51033;42.648;23.292;2023-01-29T09:52:01;94161.97;;;-0.00;66.13
30935;BME280;51033;42.648;23.292;2023-01-29T09:54:57;94169.69;;;0.11;65.60
30935;BME280;51033;42.648;23.292;2023-01-29T09:57:44;94156.63;;;0.28;65.04
30935;BME280;51033;42.648;23.292;2023-01-29T10:00:19;94128.66;;;0.12;64.32
30935;BME280;51033;42.648;23.292;2023-01-29T10:06:14;94166.06;;;0.29;64.67
30935;BME280;51033;42.648;23.292;2023-01-29T10:10:52;94153.84;;;0.01;65.41
30935;BME280;51033;42.648;23.292;2023-01-29T10:16:10;94161.78;;;0.23;65.47
30935;BME280;51033;42.648;23.292;2023-01-29T10:27:15;94146.06;;;0.23;65.01
30935;BME280;51033;42.648;23.292;2023-01-29T10:29:43;94122.75;;;-0.00;64.56
30935;BME280;51033;42.648;23.292;2023-01-29T10:32:16;94150.53;;;0.06;65.10
30935;BME280;51033;42.648;23.292;2023-01-29T10:34:47;94154.19;;;-0.12;65.49
30935;BME280;51033;42.648;23.292;2023-01-29T10:37:17;94073.56;;;-0.70;66.18
30935;BME280;51033;42.648;23.292;2023-01-29T10:39:44;94122.50;;;-0.49;67.31
30935;BME280;51033;42.648;23.292;2023-01-29T10:42:25;94135.91;;;-0.29;67.03
30935;BME280;51033;42.648;23.292;2023-01-29T10:56:28;94137.72;;;-0.13;67.31
30935;BME280;51033;42.648;23.292;2023-01-29T10:59:02;94115.16;;;-0.35;67.11
30935;BME280;51033;42.648;23.292;2023-01-29T11:01:29;94131.53;;;-0.40;67.51
30935;BME280;51033;42.648;23.292;2023-01-29T11:03:57;94140.88;;;-0.27;67.14
30935;BME280;51033;42.648;23.292;2023-01-29T11:06:28;94131.84;;;-0.36;67.58
30935;BME280;51033;42.648;23.292;2023-01-29T11:12:02;94127.75;;;-0.16;66.89
30935;BME280;51033;42.648;23.292;2023-01-29T11:14:41;94113.50;;;-0.25;67.02
30935;BME280;51033;42.648;23.292;2023-01-29T11:17:19;94128.84;;;-0.12;66.88
30935;BME280;51033;42.648;23.292;2023-01-29T11:19:47;94121.72;;;-0.16;66.93
30935;BME280;51033;42.648;23.292;2023-01-29T11:22:17;94119.66;;;-0.31;67.39
30935;BME280;51033;42.648;23.292;2023-01-29T11:24:44;94115.16;;;-0.35;68.29
30935;BME280;51033;42.648;23.292;2023-01-29T11:27:25;94082.97;;;-0.53;69.04
30935;BME280;51033;42.648;23.292;2023-01-29T11:29:54;94111.63;;;-0.08;68.21
30935;BME280;51033;42.648;23.292;2023-01-29T11:37:21;94086.34;;;0.15;65.97
30935;BME280;51033;42.648;23.292;2023-01-29T11:39:46;94091.63;;;0.20;66.03
30935;BME280;51033;42.648;23.292;2023-01-29T11:42:21;94049.59;;;0.05;65.78
30935;BME280;51033;42.648;23.292;2023-01-29T11:44:47;94076.41;;;0.17;65.63
30935;BME280;51033;42.648;23.292;2023-01-29T11:47:17;94078.63;;;0.25;66.38
30935;BME280;51033;42.648;23.292;2023-01-29T11:52:13;94081.44;;;0.02;66.73
30935;BME280;51033;42.648;23.292;2023-01-29T11:54:48;94075.53;;;0.11;66.37
30935;BME280;51033;42.648;23.292;2023-01-29T11:57:34;94084.31;;;0.22;66.35
30935;BME280;51033;42.648;23.292;2023-01-29T12:00:33;94088.09;;;-0.08;67.75
30935;BME280;51033;42.648;23.292;2023-01-29T12:03:20;94091.44;;;0.05;67.38
30935;BME280;51033;42.648;23.292;2023-01-29T12:06:16;94080.47;;;0.08;67.14
30935;BME280;51033;42.648;23.292;2023-01-29T12:08:42;94082.53;;;0.06;67.33
30935;BME280;51033;42.648;23.292;2023-01-29T12:11:09;94079.16;;;0.05;66.63
30935;BME280;51033;42.648;23.292;2023-01-29T12:13:35;94073.13;;;0.05;66.76
30935;BME280;51033;42.648;23.292;2023-01-29T12:16:14;94058.81;;;-0.10;67.35
30935;BME280;51033;42.648;23.292;2023-01-29T12:18:45;94044.34;;;0.05;66.73
30935;BME280;51033;42.648;23.292;2023-01-29T12:21:42;94074.09;;;0.20;66.58
30935;BME280;51033;42.648;23.292;2023-01-29T12:24:21;94073.91;;;0.05;67.36
30935;BME280;51033;42.648;23.292;2023-01-29T12:29:44;94077.50;;;-0.01;67.08
30935;BME280;51033;42.648;23.292;2023-01-29T12:32:25;94071.81;;;-0.15;67.63
30935;BME280;51033;42.648;23.292;2023-01-29T12:35:30;94076.56;;;-0.12;68.39
30935;BME280;51033;42.648;23.292;2023-01-29T12:38:09;94079.47;;;-0.08;67.98
30935;BME280;51033;42.648;23.292;2023-01-29T12:40:43;94079.25;;;-0.07;68.08
30935;BME280;51033;42.648;23.292;2023-01-29T12:46:30;94076.19;;;0.02;66.73
30935;BME280;51033;42.648;23.292;2023-01-29T12:49:00;94077.78;;;0.03;66.93
30935;BME280;51033;42.648;23.292;2023-01-29T12:51:35;94082.94;;;-0.02;67.23
30935;BME280;51033;42.648;23.292;2023-01-29T12:54:08;94073.78;;;-0.05;67.17
30935;BME280;51033;42.648;23.292;2023-01-29T12:56:46;94075.47;;;-0.16;67.70
30935;BME280;51033;42.648;23.292;2023-01-29T13:00:00;94086.69;;;-0.15;67.85
30935;BME280;51033;42.648;23.292;2023-01-29T13:02:39;94041.97;;;-0.35;68.13
30935;BME280;51033;42.648;23.292;2023-01-29T13:05:19;94084.97;;;-0.10;67.68
30935;BME280;51033;42.648;23.292;2023-01-29T13:07:50;94068.06;;;-0.02;68.25
30935;BME280;51033;42.648;23.292;2023-01-29T13:10:24;94030.59;;;-0.08;67.18
30935;BME280;51033;42.648;23.292;2023-01-29T13:15:44;94063.00;;;0.30;65.48
30935;BME280;51033;42.648;23.292;2023-01-29T13:20:54;94068.69;;;0.27;66.27
30935;BME280;51033;42.648;23.292;2023-01-29T13:23:22;94063.34;;;0.17;66.82
30935;BME280;51033;42.648;23.292;2023-01-29T13:25:52;94074.41;;;0.24;66.80
30935;BME280;51033;42.648;23.292;2023-01-29T13:28:22;94076.00;;;0.25;66.86
30935;BME280;51033;42.648;23.292;2023-01-29T13:33:36;94051.75;;;0.29;66.31
30935;BME280;51033;42.648;23.292;2023-01-29T13:36:02;94080.50;;;0.29;66.35
30935;BME280;51033;42.648;23.292;2023-01-29T13:38:32;94057.75;;;-0.09;67.17
30935;BME280;51033;42.648;23.292;2023-01-29T13:41:02;94088.63;;;0.11;67.84
30935;BME280;51033;42.648;23.292;2023-01-29T13:43:34;94082.53;;;0.06;67.30
30935;BME280;51033;42.648;23.292;2023-01-29T13:46:12;94082.06;;;0.09;67.09
30935;BME280;51033;42.648;23.292;2023-01-29T13:48:43;94059.13;;;-0.23;66.95
30935;BME280;51033;42.648;23.292;2023-01-29T13:51:13;94098.94;;;0.01;67.60
30935;BME280;51033;42.648;23.292;2023-01-29T13:53:42;94102.34;;;0.02;67.84
30935;BME280;51033;42.648;23.292;2023-01-29T13:59:00;94090.19;;;-0.10;66.43
30935;BME280;51033;42.648;23.292;2023-01-29T14:06:51;94097.97;;;0.24;66.23
30935;BME280;51033;42.648;23.292;2023-01-29T14:12:03;94104.75;;;-0.14;67.09
30935;BME280;51033;42.648;23.292;2023-01-29T14:17:17;94104.81;;;-0.09;67.29
30935;BME280;51033;42.648;23.292;2023-01-29T14:19:51;94099.06;;;-0.11;67.59
30935;BME280;51033;42.648;23.292;2023-01-29T14:22:22;94121.53;;;0.07;67.51
30935;BME280;51033;42.648;23.292;2023-01-29T14:24:52;94092.88;;;-0.04;66.17
30935;BME280;51033;42.648;23.292;2023-01-29T14:27:22;94127.13;;;0.16;66.30
30935;BME280;51033;42.648;23.292;2023-01-29T14:29:50;94103.34;;;-0.04;66.26
30935;BME280;51033;42.648;23.292;2023-01-29T14:32:22;94139.13;;;0.12;66.13
30935;BME280;51033;42.648;23.292;2023-01-29T14:34:54;94135.97;;;0.10;66.29
30935;BME280;51033;42.648;23.292;2023-01-29T14:37:32;94118.22;;;-0.22;66.76
30935;BME280;51033;42.648;23.292;2023-01-29T14:42:42;94136.22;;;-0.25;67.70
30935;BME280;51033;42.648;23.292;2023-01-29T14:52:53;94126.44;;;0.04;66.50
30935;BME280;51033;42.648;23.292;2023-01-29T14:55:30;94131.91;;;0.19;65.81
30935;BME280;51033;42.648;23.292;2023-01-29T14:58:00;94131.84;;;0.14;65.50
30935;BME280;51033;42.648;23.292;2023-01-29T15:00:29;94132.63;;;0.14;65.73
30935;BME280;51033;42.648;23.292;2023-01-29T15:02:57;94129.69;;;0.11;65.84
30935;BME280;51033;42.648;23.292;2023-01-29T15:05:25;94122.75;;;0.21;65.47
30935;BME280;51033;42.648;23.292;2023-01-29T15:07:57;94140.03;;;0.39;65.00
30935;BME280;51033;42.648;23.292;2023-01-29T15:10:39;94106.13;;;0.11;64.35
30935;BME280;51033;42.648;23.292;2023-01-29T15:13:22;94142.97;;;0.26;64.73
30935;BME280;51033;42.648;23.292;2023-01-29T15:15:53;94141.00;;;0.33;64.49
30935;BME280;51033;42.648;23.292;2023-01-29T15:18:34;94134.81;;;0.22;64.82
30935;BME280;51033;42.648;23.292;2023-01-29T15:21:09;94138.53;;;0.26;64.56
30935;BME280;51033;42.648;23.292;2023-01-29T15:23:35;94136.56;;;0.33;64.07
30935;BME280;51033;42.648;23.292;2023-01-29T15:26:04;94137.44;;;0.22;64.34
30935;BME280;51033;42.648;23.292;2023-01-29T15:28:32;94121.66;;;0.17;64.51